Time,TemperatureF,DewpointF,PressureIn,WindDirection,WindDirectionDegrees,WindSpeedMPH,WindSpeedGustMPH,Humidity,HourlyPrecipIn,Conditions,Clouds,dailyrainin,SoftwareType,DateUTC
2013-03-09 00:00:00,32.2,23.5,30.10,NE,56,0.0,8.0,70,0.00,,---,0.00,VWS V14.01,2013-03-09 05:00:00,
2013-03-09 00:01:00,32.2,23.5,30.10,North,0,0.0,0.0,70,0.00,,---,0.00,VWS V14.01,2013-03-09 05:01:00,
2013-03-09 00:06:00,32.1,23.4,30.10,NNE,21,5.0,5.0,70,0.00,,---,0.00,VWS V14.01,2013-03-09 05:06:00,
2013-03-09 00:11:00,32.1,23.4,30.10,North,359,0.0,5.0,70,0.00,,---,0.00,VWS V14.01,2013-03-09 05:11:00,
2013-03-09 00:16:00,31.9,23.6,30.11,NNE,28,6.0,6.0,71,0.00,,---,0.00,VWS V14.01,2013-03-09 05:16:00,
2013-03-09 00:21:00,31.9,23.6,30.11,East,82,3.0,6.0,71,0.00,,---,0.00,VWS V14.01,2013-03-09 05:21:00,
2013-03-09 00:26:00,31.9,23.6,30.11,NNE,17,4.0,6.0,71,0.00,,---,0.00,VWS V14.01,2013-03-09 05:26:00,
2013-03-09 00:31:00,31.8,23.5,30.10,North,356,2.0,6.0,71,0.00,,---,0.00,VWS V14.01,2013-03-09 05:31:00,
2013-03-09 00:36:00,31.8,23.5,30.10,North,356,2.0,6.0,71,0.00,,---,0.00,VWS V14.01,2013-03-09 05:36:00,
2013-03-09 00:41:00,31.8,23.5,30.10,ESE,113,5.0,6.0,71,0.00,,---,0.00,VWS V14.01,2013-03-09 05:41:00,
2013-03-09 00:46:00,31.6,23.3,30.11,NNW,343,0.0,11.0,71,0.00,,---,0.00,VWS V14.01,2013-03-09 05:46:00,
2013-03-09 00:51:00,31.6,23.3,30.11,NNW,343,5.0,11.0,71,0.00,,---,0.00,VWS V14.01,2013-03-09 05:51:00,
2013-03-09 00:56:00,31.5,23.2,30.11,NNE,17,2.0,11.0,71,0.00,,---,0.00,VWS V14.01,2013-03-09 05:56:00,
2013-03-09 01:00:00,30.7,23.4,30.10,North,6,0.0,10.0,74,0.00,,---,-99.99,VWS V14.01,2013-03-09 06:00:00,
2013-03-09 01:01:00,31.5,23.5,30.11,ENE,62,1.0,7.0,72,0.00,,---,0.00,VWS V14.01,2013-03-09 06:01:00,
2013-03-09 01:06:00,31.5,23.5,30.11,North,0,3.0,7.0,72,0.00,,---,0.00,VWS V14.01,2013-03-09 06:06:00,
2013-03-09 01:12:00,31.5,23.5,30.11,East,83,0.0,7.0,72,0.00,,---,0.00,VWS V14.01,2013-03-09 06:12:00,
2013-03-09 01:17:00,31.3,23.3,30.11,North,359,3.0,10.0,72,0.00,,---,0.00,VWS V14.01,2013-03-09 06:17:00,
2013-03-09 01:22:00,31.3,23.7,30.11,NE,37,0.0,10.0,73,0.00,,---,0.00,VWS V14.01,2013-03-09 06:22:00,
2013-03-09 01:27:00,31.3,23.7,30.11,WNW,291,0.0,10.0,73,0.00,,---,0.00,VWS V14.01,2013-03-09 06:27:00,
2013-03-09 01:32:00,31.0,23.4,30.11,North,10,0.0,10.0,73,0.00,,---,0.00,VWS V14.01,2013-03-09 06:32:00,
2013-03-09 01:37:00,31.0,23.4,30.11,North,0,2.0,10.0,73,0.00,,---,0.00,VWS V14.01,2013-03-09 06:37:00,
2013-03-09 01:42:00,30.9,23.3,30.11,North,0,2.0,10.0,73,0.00,,---,0.00,VWS V14.01,2013-03-09 06:42:00,
2013-03-09 01:47:00,30.9,23.3,30.10,NNW,337,5.0,10.0,73,0.00,,---,0.00,VWS V14.01,2013-03-09 06:47:00,
2013-03-09 01:52:00,30.7,23.4,30.10,ENE,68,2.0,10.0,74,0.00,,---,0.00,VWS V14.01,2013-03-09 06:52:00,
2013-03-09 01:57:00,30.7,23.4,30.10,North,6,0.0,10.0,74,0.00,,---,0.00,VWS V14.01,2013-03-09 06:57:00,
2013-03-09 02:00:00,30.0,22.7,30.10,North,359,0.0,6.0,74,0.00,,---,-99.99,VWS V14.01,2013-03-09 07:00:00,
2013-03-09 02:02:00,30.6,23.3,30.10,North,11,6.0,6.0,74,0.00,,---,0.00,VWS V14.01,2013-03-09 07:02:00,
2013-03-09 02:07:00,30.6,23.3,30.10,North,0,5.0,6.0,74,0.00,,---,0.00,VWS V14.01,2013-03-09 07:07:00,
2013-03-09 02:12:00,30.6,23.3,30.10,NNE,16,0.0,6.0,74,0.00,,---,0.00,VWS V14.01,2013-03-09 07:12:00,
2013-03-09 02:17:00,30.4,23.1,30.10,NNE,31,0.0,6.0,74,0.00,,---,0.00,VWS V14.01,2013-03-09 07:17:00,
2013-03-09 02:22:00,30.4,23.1,30.10,NNE,27,0.0,6.0,74,0.00,,---,0.00,VWS V14.01,2013-03-09 07:22:00,
2013-03-09 02:27:00,30.4,23.1,30.10,NNE,28,1.0,6.0,74,0.00,,---,0.00,VWS V14.01,2013-03-09 07:27:00,
2013-03-09 02:33:00,30.4,23.1,30.10,North,0,2.0,6.0,74,0.00,,---,0.00,VWS V14.01,2013-03-09 07:33:00,
2013-03-09 02:38:00,30.4,23.1,30.10,North,4,0.0,6.0,74,0.00,,---,0.00,VWS V14.01,2013-03-09 07:38:00,
2013-03-09 02:43:00,30.3,23.0,30.10,North,350,6.0,6.0,74,0.00,,---,0.00,VWS V14.01,2013-03-09 07:43:00,
2013-03-09 02:48:00,30.3,23.0,30.10,NE,34,0.0,6.0,74,0.00,,---,0.00,VWS V14.01,2013-03-09 07:48:00,
2013-03-09 02:53:00,30.1,22.8,30.10,NNW,333,0.0,6.0,74,0.00,,---,0.00,VWS V14.01,2013-03-09 07:53:00,
2013-03-09 02:58:00,30.1,22.8,30.10,North,0,5.0,6.0,74,0.00,,---,0.00,VWS V14.01,2013-03-09 07:58:00,
2013-03-09 03:00:00,29.4,23.1,30.10,NNE,20,0.0,10.0,77,0.00,,---,-99.99,VWS V14.01,2013-03-09 08:00:00,
2013-03-09 03:03:00,30.0,22.7,30.10,North,349,0.0,0.0,74,0.00,,---,0.00,VWS V14.01,2013-03-09 08:03:00,
2013-03-09 03:08:00,30.0,23.7,30.10,North,0,0.0,3.0,77,0.00,,---,0.00,VWS V14.01,2013-03-09 08:08:00,
2013-03-09 03:13:00,29.8,23.5,30.10,NE,40,2.0,3.0,77,0.00,,---,0.00,VWS V14.01,2013-03-09 08:13:00,
2013-03-09 03:18:00,29.8,23.5,30.11,North,6,5.0,5.0,77,0.00,,---,0.00,VWS V14.01,2013-03-09 08:18:00,
2013-03-09 03:23:00,29.8,23.5,30.11,North,1,0.0,5.0,77,0.00,,---,0.00,VWS V14.01,2013-03-09 08:23:00,
2013-03-09 03:28:00,29.4,23.1,30.11,North,0,1.0,5.0,77,0.00,,---,0.00,VWS V14.01,2013-03-09 08:28:00,
2013-03-09 03:33:00,29.4,23.1,30.10,North,3,3.0,5.0,77,0.00,,---,0.00,VWS V14.01,2013-03-09 08:33:00,
2013-03-09 03:38:00,29.4,23.1,30.10,North,3,3.0,5.0,77,0.00,,---,0.00,VWS V14.01,2013-03-09 08:38:00,
2013-03-09 03:44:00,29.4,23.1,30.10,North,350,6.0,10.0,77,0.00,,---,0.00,VWS V14.01,2013-03-09 08:44:00,
2013-03-09 03:49:00,29.4,23.1,30.10,North,354,0.0,10.0,77,0.00,,---,0.00,VWS V14.01,2013-03-09 08:49:00,
2013-03-09 03:54:00,29.4,23.1,30.10,NE,47,1.0,10.0,77,0.00,,---,0.00,VWS V14.01,2013-03-09 08:54:00,
2013-03-09 03:59:00,29.4,23.1,30.10,NNE,20,0.0,10.0,77,0.00,,---,0.00,VWS V14.01,2013-03-09 08:59:00,
2013-03-09 04:00:00,29.1,23.4,30.13,NNE,16,0.0,5.0,79,0.00,,---,-99.99,VWS V14.01,2013-03-09 09:00:00,
2013-03-09 04:04:00,29.4,23.1,30.10,North,0,0.0,0.0,77,0.00,,---,0.00,VWS V14.01,2013-03-09 09:04:00,
2013-03-09 04:09:00,29.3,23.0,30.10,ENE,61,2.0,2.0,77,0.00,,---,0.00,VWS V14.01,2013-03-09 09:09:00,
2013-03-09 04:14:00,29.3,23.0,30.11,NNW,344,3.0,3.0,77,0.00,,---,0.00,VWS V14.01,2013-03-09 09:14:00,
2013-03-09 04:19:00,29.3,23.0,30.11,NNE,14,2.0,3.0,77,0.00,,---,0.00,VWS V14.01,2013-03-09 09:19:00,
2013-03-09 04:24:00,29.3,23.0,30.11,North,1,0.0,3.0,77,0.00,,---,0.00,VWS V14.01,2013-03-09 09:24:00,
2013-03-09 04:30:00,29.3,23.0,30.12,North,356,5.0,5.0,77,0.00,,---,0.00,VWS V14.01,2013-03-09 09:30:00,
2013-03-09 04:35:00,29.3,23.0,30.12,NNE,30,0.0,5.0,77,0.00,,---,0.00,VWS V14.01,2013-03-09 09:35:00,
2013-03-09 04:40:00,29.3,23.6,30.12,NE,45,1.0,5.0,79,0.00,,---,0.00,VWS V14.01,2013-03-09 09:40:00,
2013-03-09 04:45:00,29.1,23.4,30.12,North,0,0.0,5.0,79,0.00,,---,0.00,VWS V14.01,2013-03-09 09:45:00,
2013-03-09 04:50:00,29.1,23.4,30.12,North,359,0.0,5.0,79,0.00,,---,0.00,VWS V14.01,2013-03-09 09:50:00,
2013-03-09 04:56:00,29.1,23.4,30.12,NNE,14,2.0,5.0,79,0.00,,---,0.00,VWS V14.01,2013-03-09 09:56:00,
2013-03-09 05:00:00,28.8,23.4,30.14,North,1,0.0,5.0,80,0.00,,---,-99.99,VWS V14.01,2013-03-09 10:00:00,
2013-03-09 05:01:00,29.1,23.4,30.13,NNE,16,0.0,0.0,79,0.00,,---,0.00,VWS V14.01,2013-03-09 10:01:00,
2013-03-09 05:06:00,29.1,23.4,30.13,North,0,0.0,0.0,79,0.00,,---,0.00,VWS V14.01,2013-03-09 10:06:00,
2013-03-09 05:11:00,29.0,23.3,30.13,North,359,0.0,3.0,79,0.00,,---,0.00,VWS V14.01,2013-03-09 10:11:00,
2013-03-09 05:16:00,29.0,23.3,30.12,North,357,3.0,3.0,79,0.00,,---,0.00,VWS V14.01,2013-03-09 10:16:00,
2013-03-09 05:21:00,29.0,23.3,30.12,NE,52,3.0,3.0,79,0.00,,---,0.00,VWS V14.01,2013-03-09 10:21:00,
2013-03-09 05:26:00,29.0,23.3,30.12,ENE,58,0.0,3.0,79,0.00,,---,0.00,VWS V14.01,2013-03-09 10:26:00,
2013-03-09 05:31:00,29.0,23.3,30.13,North,3,0.0,3.0,79,0.00,,---,0.00,VWS V14.01,2013-03-09 10:31:00,
2013-03-09 05:36:00,28.8,23.1,30.13,NE,45,2.0,3.0,79,0.00,,---,0.00,VWS V14.01,2013-03-09 10:36:00,
2013-03-09 05:41:00,29.0,23.6,30.13,North,356,3.0,5.0,80,0.00,,---,0.00,VWS V14.01,2013-03-09 10:41:00,
2013-03-09 05:46:00,29.0,23.6,30.13,NE,35,2.0,5.0,80,0.00,,---,0.00,VWS V14.01,2013-03-09 10:46:00,
2013-03-09 05:51:00,29.0,23.6,30.13,NNE,18,0.0,5.0,80,0.00,,---,0.00,VWS V14.01,2013-03-09 10:51:00,
2013-03-09 05:56:00,29.0,23.6,30.13,North,0,0.0,5.0,80,0.00,,---,0.00,VWS V14.01,2013-03-09 10:56:00,
2013-03-09 06:00:00,29.3,23.9,30.17,NNE,24,0.0,5.0,80,0.00,,---,-99.99,VWS V14.01,2013-03-09 11:00:00,
2013-03-09 06:01:00,28.8,23.4,30.14,NNE,28,0.0,0.0,80,0.00,,---,0.00,VWS V14.01,2013-03-09 11:01:00,
2013-03-09 06:06:00,28.8,23.4,30.14,ENE,59,0.0,0.0,80,0.00,,---,0.00,VWS V14.01,2013-03-09 11:06:00,
2013-03-09 06:12:00,28.8,23.4,30.14,ENE,68,0.0,2.0,80,0.00,,---,0.00,VWS V14.01,2013-03-09 11:12:00,
2013-03-09 06:16:00,28.8,23.4,30.15,North,359,0.0,2.0,80,0.00,,---,0.00,VWS V14.01,2013-03-09 11:16:00,
2013-03-09 06:22:00,28.8,23.4,30.15,North,359,0.0,2.0,80,0.00,,---,0.00,VWS V14.01,2013-03-09 11:22:00,
2013-03-09 06:27:00,28.8,23.4,30.15,NNE,32,0.0,2.0,80,0.00,,---,0.00,VWS V14.01,2013-03-09 11:27:00,
2013-03-09 06:32:00,29.0,23.6,30.15,North,0,1.0,3.0,80,0.00,,---,0.00,VWS V14.01,2013-03-09 11:32:00,
2013-03-09 06:37:00,29.0,23.6,30.15,North,10,0.0,3.0,80,0.00,,---,0.00,VWS V14.01,2013-03-09 11:37:00,
2013-03-09 06:42:00,29.1,23.7,30.15,North,0,2.0,3.0,80,0.00,,---,0.00,VWS V14.01,2013-03-09 11:42:00,
2013-03-09 06:47:00,29.1,23.7,30.16,North,0,0.0,5.0,80,0.00,,---,0.00,VWS V14.01,2013-03-09 11:47:00,
2013-03-09 06:52:00,29.3,23.9,30.16,North,0,4.0,5.0,80,0.00,,---,0.00,VWS V14.01,2013-03-09 11:52:00,
2013-03-09 06:57:00,29.3,23.9,30.16,NNE,14,3.0,5.0,80,0.00,,---,0.00,VWS V14.01,2013-03-09 11:57:00,
2013-03-09 07:00:00,30.6,25.2,30.18,ENE,66,5.0,5.0,80,0.00,,---,-99.99,VWS V14.01,2013-03-09 12:00:00,
2013-03-09 07:02:00,29.3,23.9,30.17,NNE,24,0.0,0.0,80,0.00,,---,0.00,VWS V14.01,2013-03-09 12:02:00,
2013-03-09 07:07:00,29.3,23.9,30.17,North,0,3.0,3.0,80,0.00,,---,0.00,VWS V14.01,2013-03-09 12:07:00,
2013-03-09 07:12:00,29.7,24.3,30.17,NNE,27,3.0,3.0,80,0.00,,---,0.00,VWS V14.01,2013-03-09 12:12:00,
2013-03-09 07:17:00,29.8,24.4,30.17,NNE,21,2.0,3.0,80,0.00,,---,0.00,VWS V14.01,2013-03-09 12:17:00,
2013-03-09 07:22:00,29.8,24.4,30.17,North,7,0.0,3.0,80,0.00,,---,0.00,VWS V14.01,2013-03-09 12:22:00,
2013-03-09 07:27:00,30.0,24.6,30.17,North,352,0.0,3.0,80,0.00,,---,0.00,VWS V14.01,2013-03-09 12:27:00,
2013-03-09 07:32:00,30.0,24.6,30.18,NNE,21,2.0,3.0,80,0.00,,---,0.00,VWS V14.01,2013-03-09 12:32:00,
2013-03-09 07:38:00,30.0,24.6,30.18,NE,42,3.0,3.0,80,0.00,,---,0.00,VWS V14.01,2013-03-09 12:38:00,
2013-03-09 07:43:00,30.0,24.6,30.18,NE,44,0.0,3.0,80,0.00,,---,0.00,VWS V14.01,2013-03-09 12:43:00,
2013-03-09 07:48:00,30.4,25.0,30.18,NNE,31,0.0,3.0,80,0.00,,---,0.00,VWS V14.01,2013-03-09 12:48:00,
2013-03-09 07:53:00,30.4,25.0,30.18,North,7,0.0,3.0,80,0.00,,---,0.00,VWS V14.01,2013-03-09 12:53:00,
2013-03-09 07:58:00,30.6,25.2,30.18,ENE,66,5.0,5.0,80,0.00,,---,0.00,VWS V14.01,2013-03-09 12:58:00,
2013-03-09 08:00:00,31.9,23.6,30.20,ENE,64,2.0,5.0,71,0.00,,---,-99.99,VWS V14.01,2013-03-09 13:00:00,
2013-03-09 08:03:00,30.6,25.2,30.18,ENE,66,5.0,5.0,80,0.00,,---,0.00,VWS V14.01,2013-03-09 13:03:00,
2013-03-09 08:08:00,30.6,25.2,30.18,NE,42,0.0,5.0,80,0.00,,---,0.00,VWS V14.01,2013-03-09 13:08:00,
2013-03-09 08:13:00,30.3,24.9,30.18,NNW,340,1.0,5.0,80,0.00,,---,0.00,VWS V14.01,2013-03-09 13:13:00,
2013-03-09 08:19:00,30.4,25.0,30.18,ENE,66,1.0,5.0,80,0.00,,---,0.00,VWS V14.01,2013-03-09 13:19:00,
2013-03-09 08:24:00,30.9,25.5,30.18,East,85,0.0,5.0,80,0.00,,---,0.00,VWS V14.01,2013-03-09 13:24:00,
2013-03-09 08:29:00,31.0,25.6,30.18,NNE,32,0.0,5.0,80,0.00,,---,0.00,VWS V14.01,2013-03-09 13:29:00,
2013-03-09 08:34:00,31.0,25.6,30.19,ENE,58,0.0,5.0,80,0.00,,---,0.00,VWS V14.01,2013-03-09 13:34:00,
2013-03-09 08:39:00,31.2,25.8,30.19,North,359,2.0,5.0,80,0.00,,---,0.00,VWS V14.01,2013-03-09 13:39:00,
2013-03-09 08:45:00,31.2,25.8,30.19,NNE,24,0.0,5.0,80,0.00,,---,0.00,VWS V14.01,2013-03-09 13:45:00,
2013-03-09 08:50:00,31.9,26.4,30.19,ENE,73,0.0,5.0,80,0.00,,---,0.00,VWS V14.01,2013-03-09 13:50:00,
2013-03-09 08:55:00,31.9,23.6,30.19,ENE,58,3.0,5.0,71,0.00,,---,0.00,VWS V14.01,2013-03-09 13:55:00,
2013-03-09 09:00:00,31.9,23.6,30.20,ENE,64,2.0,5.0,71,0.00,,---,0.00,VWS V14.01,2013-03-09 14:00:00,
2013-03-09 09:05:00,31.9,22.9,30.20,East,95,1.0,2.0,69,0.00,,---,0.00,VWS V14.01,2013-03-09 14:05:00,
2013-03-09 09:11:00,31.9,22.9,30.20,NE,45,0.0,2.0,69,0.00,,---,0.00,VWS V14.01,2013-03-09 14:11:00,
2013-03-09 09:16:00,33.1,24.0,30.19,North,11,1.0,2.0,69,0.00,,---,0.00,VWS V14.01,2013-03-09 14:16:00,
2013-03-09 09:21:00,33.1,24.0,30.19,NE,55,0.0,2.0,69,0.00,,---,0.00,VWS V14.01,2013-03-09 14:21:00,
2013-03-09 09:26:00,33.4,24.3,30.19,NE,51,1.0,2.0,69,0.00,,---,0.00,VWS V14.01,2013-03-09 14:26:00,
2013-03-09 09:32:00,33.5,24.4,30.19,NE,40,2.0,2.0,69,0.00,,---,0.00,VWS V14.01,2013-03-09 14:32:00,
2013-03-09 09:37:00,34.3,24.1,30.19,North,6,1.0,10.0,66,0.00,,---,0.00,VWS V14.01,2013-03-09 14:37:00,
2013-03-09 09:42:00,34.1,24.0,30.19,NNE,25,0.0,10.0,66,0.00,,---,0.00,VWS V14.01,2013-03-09 14:42:00,
2013-03-09 09:47:00,34.1,24.0,30.19,NE,48,0.0,10.0,66,0.00,,---,0.00,VWS V14.01,2013-03-09 14:47:00,
2013-03-09 09:52:00,33.5,23.4,30.19,East,80,0.0,10.0,66,0.00,,---,0.00,VWS V14.01,2013-03-09 14:52:00,
2013-03-09 09:58:00,33.5,23.4,30.19,NNW,346,1.0,10.0,66,0.00,,---,0.00,VWS V14.01,2013-03-09 14:58:00,
2013-03-09 10:00:00,36.6,26.3,30.19,NNE,16,0.0,7.0,66,0.00,,---,-99.99,VWS V14.01,2013-03-09 15:00:00,
2013-03-09 10:03:00,33.7,23.6,30.19,North,359,3.0,3.0,66,0.00,,---,0.00,VWS V14.01,2013-03-09 15:03:00,
2013-03-09 10:08:00,34.1,24.0,30.19,NNW,337,0.0,3.0,66,0.00,,---,0.00,VWS V14.01,2013-03-09 15:08:00,
2013-03-09 10:13:00,34.1,24.0,30.19,NNE,18,0.0,3.0,66,0.00,,---,0.00,VWS V14.01,2013-03-09 15:13:00,
2013-03-09 10:18:00,34.1,24.0,30.19,North,11,0.0,3.0,66,0.00,,---,0.00,VWS V14.01,2013-03-09 15:18:00,
2013-03-09 10:23:00,34.4,24.2,30.19,ENE,66,0.0,3.0,66,0.00,,---,0.00,VWS V14.01,2013-03-09 15:23:00,
2013-03-09 10:28:00,34.4,24.2,30.19,NNE,31,0.0,3.0,66,0.00,,---,0.00,VWS V14.01,2013-03-09 15:28:00,
2013-03-09 10:33:00,35.3,25.1,30.19,ENE,72,2.0,3.0,66,0.00,,---,0.00,VWS V14.01,2013-03-09 15:33:00,
2013-03-09 10:38:00,35.3,25.1,30.19,ENE,62,0.0,3.0,66,0.00,,---,0.00,VWS V14.01,2013-03-09 15:38:00,
2013-03-09 10:43:00,35.3,25.1,30.19,North,354,6.0,6.0,66,0.00,,---,0.00,VWS V14.01,2013-03-09 15:43:00,
2013-03-09 10:48:00,35.3,25.1,30.19,NNW,336,7.0,7.0,66,0.00,,---,0.00,VWS V14.01,2013-03-09 15:48:00,
2013-03-09 10:53:00,36.6,26.3,30.19,NW,322,2.0,7.0,66,0.00,,---,0.00,VWS V14.01,2013-03-09 15:53:00,
2013-03-09 10:58:00,36.6,26.3,30.19,ENE,59,3.0,7.0,66,0.00,,---,0.00,VWS V14.01,2013-03-09 15:58:00,
2013-03-09 11:00:00,38.0,27.7,30.18,SW,229,0.0,3.0,66,0.00,,---,-99.99,VWS V14.01,2013-03-09 16:00:00,
2013-03-09 11:03:00,36.6,26.3,30.19,East,83,0.0,0.0,66,0.00,,---,0.00,VWS V14.01,2013-03-09 16:03:00,
2013-03-09 11:09:00,37.2,26.9,30.19,North,352,1.0,1.0,66,0.00,,---,0.00,VWS V14.01,2013-03-09 16:09:00,
2013-03-09 11:14:00,37.2,26.9,30.19,ENE,75,0.0,2.0,66,0.00,,---,0.00,VWS V14.01,2013-03-09 16:14:00,
2013-03-09 11:19:00,37.2,26.9,30.19,ENE,72,3.0,3.0,66,0.00,,---,0.00,VWS V14.01,2013-03-09 16:19:00,
2013-03-09 11:24:00,37.2,26.9,30.19,North,3,0.0,3.0,66,0.00,,---,0.00,VWS V14.01,2013-03-09 16:24:00,
2013-03-09 11:29:00,37.6,27.3,30.19,NNE,28,0.0,3.0,66,0.00,,---,0.00,VWS V14.01,2013-03-09 16:29:00,
2013-03-09 11:34:00,37.6,27.3,30.19,ENE,75,1.0,3.0,66,0.00,,---,0.00,VWS V14.01,2013-03-09 16:34:00,
2013-03-09 11:39:00,37.6,27.3,30.19,NNW,336,0.0,3.0,66,0.00,,---,0.00,VWS V14.01,2013-03-09 16:39:00,
2013-03-09 11:44:00,37.6,27.3,30.19,North,11,2.0,3.0,66,0.00,,---,0.00,VWS V14.01,2013-03-09 16:44:00,
2013-03-09 11:49:00,37.6,27.3,30.19,North,11,2.0,3.0,66,0.00,,---,0.00,VWS V14.01,2013-03-09 16:49:00,
2013-03-09 11:55:00,37.6,27.3,30.19,NE,41,2.0,3.0,66,0.00,,---,0.00,VWS V14.01,2013-03-09 16:55:00,
2013-03-09 12:00:00,38.0,27.7,30.18,SW,229,0.0,3.0,66,0.00,,---,0.00,VWS V14.01,2013-03-09 17:00:00,
2013-03-09 12:05:00,38.8,28.4,30.18,NW,326,3.0,3.0,66,0.00,,---,0.00,VWS V14.01,2013-03-09 17:05:00,
2013-03-09 12:10:00,38.9,25.0,30.18,East,86,1.0,3.0,57,0.00,,---,0.00,VWS V14.01,2013-03-09 17:10:00,
2013-03-09 12:15:00,38.9,25.0,30.19,ENE,66,0.0,3.0,57,0.00,,---,0.00,VWS V14.01,2013-03-09 17:15:00,
2013-03-09 12:20:00,38.9,24.1,30.19,East,80,0.0,3.0,55,0.00,,---,0.00,VWS V14.01,2013-03-09 17:20:00,
2013-03-09 12:25:00,38.9,24.1,30.19,NE,40,2.0,3.0,55,0.00,,---,0.00,VWS V14.01,2013-03-09 17:25:00,
2013-03-09 12:30:00,38.9,24.1,30.18,NNE,24,2.0,3.0,55,0.00,,---,0.00,VWS V14.01,2013-03-09 17:30:00,
2013-03-09 12:35:00,38.9,24.1,30.18,ENE,66,1.0,5.0,55,0.00,,---,0.00,VWS V14.01,2013-03-09 17:35:00,
2013-03-09 12:40:00,39.5,24.7,30.18,NNE,18,3.0,5.0,55,0.00,,---,0.00,VWS V14.01,2013-03-09 17:40:00,
2013-03-09 12:45:00,39.5,24.7,30.18,ENE,68,2.0,5.0,55,0.00,,---,0.00,VWS V14.01,2013-03-09 17:45:00,
2013-03-09 12:50:00,39.3,24.5,30.18,ENE,62,0.0,5.0,55,0.00,,---,0.00,VWS V14.01,2013-03-09 17:50:00,
2013-03-09 12:55:00,39.8,25.0,30.18,NE,34,5.0,5.0,55,0.00,,---,0.00,VWS V14.01,2013-03-09 17:55:00,
2013-03-09 13:00:00,40.1,25.2,30.18,NNE,27,0.0,0.0,55,0.00,,---,0.00,VWS V14.01,2013-03-09 18:00:00,
2013-03-09 13:05:00,40.1,25.2,30.18,NNE,27,0.0,0.0,55,0.00,,---,0.00,VWS V14.01,2013-03-09 18:05:00,
2013-03-09 13:10:00,40.6,25.3,30.18,NE,55,0.0,2.0,54,0.00,,---,0.00,VWS V14.01,2013-03-09 18:10:00,
2013-03-09 13:16:00,40.9,25.5,30.18,East,92,0.0,2.0,54,0.00,,---,0.00,VWS V14.01,2013-03-09 18:16:00,
2013-03-09 13:21:00,41.1,25.7,30.18,ENE,78,0.0,2.0,54,0.00,,---,0.00,VWS V14.01,2013-03-09 18:21:00,
2013-03-09 13:26:00,41.2,25.8,30.18,ENE,75,0.0,2.0,54,0.00,,---,0.00,VWS V14.01,2013-03-09 18:26:00,
2013-03-09 13:31:00,41.2,25.8,30.18,North,10,2.0,2.0,54,0.00,,---,0.00,VWS V14.01,2013-03-09 18:31:00,
2013-03-09 13:36:00,41.1,24.4,30.18,NE,55,2.0,2.0,51,0.00,,---,0.00,VWS V14.01,2013-03-09 18:36:00,
2013-03-09 13:41:00,41.2,24.5,30.18,NE,44,5.0,5.0,51,0.00,,---,0.00,VWS V14.01,2013-03-09 18:41:00,
2013-03-09 13:46:00,41.3,24.5,30.18,NE,48,1.0,6.0,51,0.00,,---,0.00,VWS V14.01,2013-03-09 18:46:00,
2013-03-09 13:51:00,41.3,24.5,30.18,NE,56,2.0,6.0,51,0.00,,---,0.00,VWS V14.01,2013-03-09 18:51:00,
2013-03-09 13:57:00,41.6,24.8,30.18,NE,44,0.0,6.0,51,0.00,,---,0.00,VWS V14.01,2013-03-09 18:57:00,
2013-03-09 14:00:00,42.2,24.9,30.18,NNW,343,3.0,7.0,50,0.00,,---,-99.99,VWS V14.01,2013-03-09 19:00:00,
2013-03-09 14:02:00,41.6,24.8,30.18,ENE,64,1.0,1.0,51,0.00,,---,0.00,VWS V14.01,2013-03-09 19:02:00,
2013-03-09 14:07:00,41.6,24.8,30.18,ENE,68,3.0,3.0,51,0.00,,---,0.00,VWS V14.01,2013-03-09 19:07:00,
2013-03-09 14:12:00,41.8,25.0,30.18,NNE,30,0.0,7.0,51,0.00,,---,0.00,VWS V14.01,2013-03-09 19:12:00,
2013-03-09 14:17:00,41.8,25.0,30.18,NNE,30,0.0,7.0,51,0.00,,---,0.00,VWS V14.01,2013-03-09 19:17:00,
2013-03-09 14:22:00,41.6,24.4,30.18,ENE,61,1.0,7.0,50,0.00,,---,0.00,VWS V14.01,2013-03-09 19:22:00,
2013-03-09 14:28:00,41.6,24.4,30.18,NE,49,0.0,7.0,50,0.00,,---,0.00,VWS V14.01,2013-03-09 19:28:00,
2013-03-09 14:33:00,41.6,24.4,30.18,NE,45,2.0,7.0,50,0.00,,---,0.00,VWS V14.01,2013-03-09 19:33:00,
2013-03-09 14:38:00,42.1,24.8,30.18,NE,55,0.0,7.0,50,0.00,,---,0.00,VWS V14.01,2013-03-09 19:38:00,
2013-03-09 14:43:00,42.2,24.9,30.18,NNW,343,3.0,7.0,50,0.00,,---,0.00,VWS V14.01,2013-03-09 19:43:00,
2013-03-09 14:48:00,42.2,24.9,30.18,NNW,343,3.0,7.0,50,0.00,,---,0.00,VWS V14.01,2013-03-09 19:48:00,
2013-03-09 14:54:00,42.2,24.9,30.18,NNW,343,3.0,7.0,50,0.00,,---,0.00,VWS V14.01,2013-03-09 19:54:00,
2013-03-09 14:59:00,42.2,24.9,30.18,NNW,343,3.0,7.0,50,0.00,,---,0.00,VWS V14.01,2013-03-09 19:59:00,
2013-03-09 15:00:00,42.2,24.4,30.19,NE,49,2.0,6.0,49,0.00,,---,-99.99,VWS V14.01,2013-03-09 20:00:00,
2013-03-09 15:04:00,42.2,24.9,30.18,NNW,343,3.0,3.0,50,0.00,,---,0.00,VWS V14.01,2013-03-09 20:04:00,
2013-03-09 15:09:00,42.3,23.5,30.18,NE,34,0.0,3.0,47,0.00,,---,0.00,VWS V14.01,2013-03-09 20:09:00,
2013-03-09 15:14:00,42.3,23.5,30.18,ENE,64,3.0,3.0,47,0.00,,---,0.00,VWS V14.01,2013-03-09 20:14:00,
2013-03-09 15:19:00,42.3,23.5,30.18,East,88,1.0,3.0,47,0.00,,---,0.00,VWS V14.01,2013-03-09 20:19:00,
2013-03-09 15:25:00,42.3,23.5,30.18,North,359,6.0,6.0,47,0.00,,---,0.00,VWS V14.01,2013-03-09 20:25:00,
2013-03-09 15:30:00,42.3,23.5,30.19,North,359,0.0,6.0,47,0.00,,---,0.00,VWS V14.01,2013-03-09 20:30:00,
2013-03-09 15:35:00,42.2,24.4,30.19,ENE,65,0.0,6.0,49,0.00,,---,0.00,VWS V14.01,2013-03-09 20:35:00,
2013-03-09 15:40:00,42.2,24.4,30.19,NE,41,0.0,6.0,49,0.00,,---,0.00,VWS V14.01,2013-03-09 20:40:00,
2013-03-09 15:45:00,42.2,24.4,30.19,NE,38,0.0,6.0,49,0.00,,---,0.00,VWS V14.01,2013-03-09 20:45:00,
2013-03-09 15:50:00,42.2,24.4,30.19,NE,44,0.0,6.0,49,0.00,,---,0.00,VWS V14.01,2013-03-09 20:50:00,
2013-03-09 15:56:00,42.2,24.4,30.19,NE,47,0.0,6.0,49,0.00,,---,0.00,VWS V14.01,2013-03-09 20:56:00,
2013-03-09 16:00:00,39.5,21.9,30.21,NNE,27,0.0,2.0,49,0.00,,---,-99.99,VWS V14.01,2013-03-09 21:00:00,
2013-03-09 16:01:00,42.2,24.4,30.19,NE,49,2.0,2.0,49,0.00,,---,0.00,VWS V14.01,2013-03-09 21:01:00,
2013-03-09 16:06:00,42.2,24.4,30.19,North,0,1.0,2.0,49,0.00,,---,0.00,VWS V14.01,2013-03-09 21:06:00,
2013-03-09 16:11:00,42.2,24.4,30.19,ENE,65,2.0,2.0,49,0.00,,---,0.00,VWS V14.01,2013-03-09 21:11:00,
2013-03-09 16:16:00,41.1,23.4,30.20,ENE,73,0.0,2.0,49,0.00,,---,0.00,VWS V14.01,2013-03-09 21:16:00,
2013-03-09 16:21:00,40.9,23.2,30.20,ENE,58,0.0,2.0,49,0.00,,---,0.00,VWS V14.01,2013-03-09 21:21:00,
2013-03-09 16:27:00,40.9,23.2,30.20,ENE,58,0.0,2.0,49,0.00,,---,0.00,VWS V14.01,2013-03-09 21:27:00,
2013-03-09 16:32:00,40.6,23.0,30.20,NE,45,0.0,2.0,49,0.00,,---,0.00,VWS V14.01,2013-03-09 21:32:00,
2013-03-09 16:37:00,40.6,23.0,30.20,North,11,0.0,2.0,49,0.00,,---,0.00,VWS V14.01,2013-03-09 21:37:00,
2013-03-09 16:42:00,40.6,23.0,30.20,NNE,18,0.0,2.0,49,0.00,,---,0.00,VWS V14.01,2013-03-09 21:42:00,
2013-03-09 16:47:00,40.6,23.0,30.21,ENE,64,2.0,2.0,49,0.00,,---,0.00,VWS V14.01,2013-03-09 21:47:00,
2013-03-09 16:52:00,39.8,22.2,30.21,North,354,0.0,2.0,49,0.00,,---,0.00,VWS V14.01,2013-03-09 21:52:00,
2013-03-09 16:57:00,39.5,21.9,30.21,NNE,27,0.0,2.0,49,0.00,,---,0.00,VWS V14.01,2013-03-09 21:57:00,
2013-03-09 17:00:00,37.2,24.6,30.24,NNE,27,0.0,0.0,60,0.00,,---,-99.99,VWS V14.01,2013-03-09 22:00:00,
2013-03-09 17:02:00,39.5,21.9,30.21,NNE,27,0.0,0.0,49,0.00,,---,0.00,VWS V14.01,2013-03-09 22:02:00,
2013-03-09 17:07:00,39.5,21.9,30.21,NNE,27,0.0,0.0,49,0.00,,---,0.00,VWS V14.01,2013-03-09 22:07:00,
2013-03-09 17:12:00,39.5,21.9,30.21,NNE,27,0.0,0.0,49,0.00,,---,0.00,VWS V14.01,2013-03-09 22:12:00,
2013-03-09 17:17:00,39.5,21.9,30.22,NNE,27,0.0,0.0,49,0.00,,---,0.00,VWS V14.01,2013-03-09 22:17:00,
2013-03-09 17:22:00,39.5,21.9,30.22,NNE,27,0.0,0.0,49,0.00,,---,0.00,VWS V14.01,2013-03-09 22:22:00,
2013-03-09 17:27:00,39.5,21.9,30.22,NNE,27,0.0,0.0,49,0.00,,---,0.00,VWS V14.01,2013-03-09 22:27:00,
2013-03-09 17:32:00,38.3,20.8,30.23,NNE,27,0.0,0.0,49,0.00,,---,0.00,VWS V14.01,2013-03-09 22:32:00,
2013-03-09 17:38:00,38.3,20.8,30.23,NNE,27,0.0,0.0,49,0.00,,---,0.00,VWS V14.01,2013-03-09 22:38:00,
2013-03-09 17:44:00,38.3,25.6,30.23,NNE,27,0.0,0.0,60,0.00,,---,0.00,VWS V14.01,2013-03-09 22:44:00,
2013-03-09 17:49:00,37.6,25.0,30.23,NNE,27,0.0,0.0,60,0.00,,---,0.00,VWS V14.01,2013-03-09 22:49:00,
2013-03-09 17:55:00,37.6,25.0,30.23,NNE,27,0.0,0.0,60,0.00,,---,0.00,VWS V14.01,2013-03-09 22:55:00,
2013-03-09 18:00:00,37.2,24.6,30.24,NNE,27,0.0,0.0,60,0.00,,---,0.00,VWS V14.01,2013-03-09 23:00:00,
2013-03-09 18:07:00,37.0,24.4,30.24,NNE,27,0.0,0.0,60,0.00,,---,0.00,VWS V14.01,2013-03-09 23:07:00,
2013-03-09 18:12:00,37.0,24.4,30.24,NNE,27,0.0,0.0,60,0.00,,---,0.00,VWS V14.01,2013-03-09 23:12:00,
2013-03-09 18:18:00,37.0,24.4,30.24,NNE,27,0.0,0.0,60,0.00,,---,0.00,VWS V14.01,2013-03-09 23:18:00,
2013-03-09 18:23:00,37.0,24.4,30.24,NNE,27,0.0,0.0,60,0.00,,---,0.00,VWS V14.01,2013-03-09 23:23:00,
2013-03-09 18:28:00,37.0,24.4,30.24,NNE,27,0.0,0.0,60,0.00,,---,0.00,VWS V14.01,2013-03-09 23:28:00,
2013-03-09 18:33:00,36.0,23.5,30.25,NE,40,0.0,0.0,60,0.00,,---,0.00,VWS V14.01,2013-03-09 23:33:00,
2013-03-09 18:38:00,36.0,23.5,30.25,NE,34,0.0,0.0,60,0.00,,---,0.00,VWS V14.01,2013-03-09 23:38:00,
2013-03-09 18:43:00,35.9,23.4,30.25,NE,34,0.0,0.0,60,0.00,,---,0.00,VWS V14.01,2013-03-09 23:43:00,
2013-03-09 18:48:00,35.9,23.4,30.25,NNE,32,0.0,0.0,60,0.00,,---,0.00,VWS V14.01,2013-03-09 23:48:00,
2013-03-09 18:53:00,35.6,23.1,30.25,North,8,0.0,2.0,60,0.00,,---,0.00,VWS V14.01,2013-03-09 23:53:00,
2013-03-09 18:58:00,35.6,23.1,30.25,NE,35,0.0,2.0,60,0.00,,---,0.00,VWS V14.01,2013-03-09 23:58:00,
2013-03-09 19:00:00,34.3,24.5,30.27,NNE,13,0.0,2.0,67,0.00,,---,-99.99,VWS V14.01,2013-03-10 00:00:00,
2013-03-09 19:03:00,35.6,23.1,30.26,NE,35,0.0,0.0,60,0.00,,---,0.00,VWS V14.01,2013-03-10 00:03:00,
2013-03-09 19:08:00,35.6,23.1,30.26,NE,51,0.0,1.0,60,0.00,,---,0.00,VWS V14.01,2013-03-10 00:08:00,
2013-03-09 19:13:00,35.5,23.0,30.26,NE,41,0.0,1.0,60,0.00,,---,0.00,VWS V14.01,2013-03-10 00:13:00,
2013-03-09 19:18:00,35.5,23.0,30.27,NE,41,0.0,1.0,60,0.00,,---,0.00,VWS V14.01,2013-03-10 00:18:00,
2013-03-09 19:23:00,35.2,22.7,30.27,ENE,72,0.0,1.0,60,0.00,,---,0.00,VWS V14.01,2013-03-10 00:23:00,
2013-03-09 19:29:00,35.2,25.4,30.27,ENE,72,0.0,1.0,67,0.00,,---,0.00,VWS V14.01,2013-03-10 00:29:00,
2013-03-09 19:34:00,35.2,25.4,30.27,ENE,72,0.0,1.0,67,0.00,,---,0.00,VWS V14.01,2013-03-10 00:34:00,
2013-03-09 19:40:00,34.7,24.9,30.27,North,359,0.0,1.0,67,0.00,,---,0.00,VWS V14.01,2013-03-10 00:40:00,
2013-03-09 19:45:00,34.7,24.9,30.27,NE,55,0.0,1.0,67,0.00,,---,0.00,VWS V14.01,2013-03-10 00:45:00,
2013-03-09 19:50:00,34.7,24.9,30.27,NE,55,0.0,1.0,67,0.00,,---,0.00,VWS V14.01,2013-03-10 00:50:00,
2013-03-09 19:55:00,34.4,24.6,30.27,NNE,13,0.0,2.0,67,0.00,,---,0.00,VWS V14.01,2013-03-10 00:55:00,
2013-03-09 20:00:00,34.3,24.5,30.27,NNE,13,0.0,0.0,67,0.00,,---,0.00,VWS V14.01,2013-03-10 01:00:00,
2013-03-09 20:05:00,34.3,24.5,30.27,NNE,13,0.0,0.0,67,0.00,,---,0.00,VWS V14.01,2013-03-10 01:05:00,
2013-03-09 20:11:00,34.3,24.5,30.27,NE,35,0.0,0.0,67,0.00,,---,0.00,VWS V14.01,2013-03-10 01:11:00,
2013-03-09 20:16:00,34.1,24.3,30.27,NE,35,0.0,1.0,67,0.00,,---,0.00,VWS V14.01,2013-03-10 01:16:00,
2013-03-09 20:21:00,34.1,24.3,30.27,NE,35,0.0,1.0,67,0.00,,---,0.00,VWS V14.01,2013-03-10 01:21:00,
2013-03-09 20:26:00,34.0,24.2,30.27,NNE,13,0.0,1.0,67,0.00,,---,0.00,VWS V14.01,2013-03-10 01:26:00,
2013-03-09 20:31:00,34.0,24.2,30.27,East,80,0.0,1.0,67,0.00,,---,0.00,VWS V14.01,2013-03-10 01:31:00,
2013-03-09 20:36:00,34.0,24.2,30.27,East,80,0.0,1.0,67,0.00,,---,0.00,VWS V14.01,2013-03-10 01:36:00,
2013-03-09 20:41:00,34.0,24.2,30.27,NE,49,0.0,1.0,67,0.00,,---,0.00,VWS V14.01,2013-03-10 01:41:00,
2013-03-09 20:46:00,34.0,24.2,30.27,NNE,32,0.0,1.0,67,0.00,,---,0.00,VWS V14.01,2013-03-10 01:46:00,
2013-03-09 20:51:00,33.7,23.9,30.27,ENE,64,0.0,2.0,67,0.00,,---,0.00,VWS V14.01,2013-03-10 01:51:00,
2013-03-09 20:57:00,33.5,23.7,30.27,NE,37,0.0,2.0,67,0.00,,---,0.00,VWS V14.01,2013-03-10 01:57:00,
2013-03-09 21:00:00,32.9,25.9,30.27,NNE,27,1.0,5.0,75,0.00,,---,-99.99,VWS V14.01,2013-03-10 02:00:00,
2013-03-09 21:02:00,33.5,23.7,30.27,NE,37,0.0,0.0,67,0.00,,---,0.00,VWS V14.01,2013-03-10 02:02:00,
2013-03-09 21:07:00,33.5,23.7,30.27,NE,37,1.0,1.0,67,0.00,,---,0.00,VWS V14.01,2013-03-10 02:07:00,
2013-03-09 21:12:00,33.2,23.5,30.27,NE,56,0.0,1.0,67,0.00,,---,0.00,VWS V14.01,2013-03-10 02:12:00,
2013-03-09 21:17:00,33.2,23.5,30.27,NE,54,0.0,1.0,67,0.00,,---,0.00,VWS V14.01,2013-03-10 02:17:00,
2013-03-09 21:22:00,33.2,23.5,30.27,ENE,69,0.0,1.0,67,0.00,,---,0.00,VWS V14.01,2013-03-10 02:22:00,
2013-03-09 21:27:00,33.2,23.5,30.27,NNE,28,0.0,1.0,67,0.00,,---,0.00,VWS V14.01,2013-03-10 02:27:00,
2013-03-09 21:32:00,33.2,23.5,30.27,ENE,65,0.0,1.0,67,0.00,,---,0.00,VWS V14.01,2013-03-10 02:32:00,
2013-03-09 21:37:00,33.2,23.5,30.27,North,357,0.0,1.0,67,0.00,,---,0.00,VWS V14.01,2013-03-10 02:37:00,
2013-03-09 21:42:00,33.2,23.5,30.27,North,359,0.0,1.0,67,0.00,,---,0.00,VWS V14.01,2013-03-10 02:42:00,
2013-03-09 21:47:00,32.9,23.2,30.27,NE,38,0.0,1.0,67,0.00,,---,0.00,VWS V14.01,2013-03-10 02:47:00,
2013-03-09 21:52:00,32.9,23.2,30.27,NNE,20,0.0,1.0,67,0.00,,---,0.00,VWS V14.01,2013-03-10 02:52:00,
2013-03-09 21:57:00,32.9,23.2,30.27,NE,52,0.0,1.0,67,0.00,,---,0.00,VWS V14.01,2013-03-10 02:57:00,
2013-03-09 22:00:00,31.5,25.4,30.30,NE,35,0.0,1.0,78,0.00,,---,-99.99,VWS V14.01,2013-03-10 03:00:00,
2013-03-09 22:03:00,32.9,25.9,30.27,NNE,27,1.0,1.0,75,0.00,,---,0.00,VWS V14.01,2013-03-10 03:03:00,
2013-03-09 22:08:00,32.5,25.5,30.27,NE,40,0.0,1.0,75,0.00,,---,0.00,VWS V14.01,2013-03-10 03:08:00,
2013-03-09 22:13:00,32.4,25.4,30.27,ENE,58,0.0,1.0,75,0.00,,---,0.00,VWS V14.01,2013-03-10 03:13:00,
2013-03-09 22:18:00,32.4,25.4,30.29,NE,34,0.0,1.0,75,0.00,,---,0.00,VWS V14.01,2013-03-10 03:18:00,
2013-03-09 22:23:00,32.2,25.2,30.29,NE,34,0.0,1.0,75,0.00,,---,0.00,VWS V14.01,2013-03-10 03:23:00,
2013-03-09 22:28:00,32.2,25.2,30.29,NE,35,0.0,1.0,75,0.00,,---,0.00,VWS V14.01,2013-03-10 03:28:00,
2013-03-09 22:33:00,32.2,25.2,30.29,NE,35,0.0,1.0,75,0.00,,---,0.00,VWS V14.01,2013-03-10 03:33:00,
2013-03-09 22:38:00,32.2,25.2,30.29,NE,35,0.0,1.0,75,0.00,,---,0.00,VWS V14.01,2013-03-10 03:38:00,
2013-03-09 22:43:00,31.8,24.8,30.29,NE,35,0.0,1.0,75,0.00,,---,0.00,VWS V14.01,2013-03-10 03:43:00,
2013-03-09 22:48:00,31.8,24.8,30.30,NE,35,0.0,1.0,75,0.00,,---,0.00,VWS V14.01,2013-03-10 03:48:00,
2013-03-09 22:53:00,31.5,24.5,30.30,NE,35,0.0,1.0,75,0.00,,---,0.00,VWS V14.01,2013-03-10 03:53:00,
2013-03-09 22:58:00,31.5,25.4,30.30,NE,35,0.0,1.0,78,0.00,,---,0.00,VWS V14.01,2013-03-10 03:58:00,
2013-03-09 23:00:00,30.7,25.3,30.30,ENE,58,0.0,3.0,80,0.00,,---,-99.99,VWS V14.01,2013-03-10 04:00:00,
2013-03-09 23:03:00,31.2,25.1,30.30,NE,35,0.0,0.0,78,0.00,,---,0.00,VWS V14.01,2013-03-10 04:03:00,
2013-03-09 23:09:00,31.2,25.1,30.30,NE,35,0.0,0.0,78,0.00,,---,0.00,VWS V14.01,2013-03-10 04:09:00,
2013-03-09 23:14:00,31.0,25.6,30.30,NE,38,0.0,2.0,80,0.00,,---,0.00,VWS V14.01,2013-03-10 04:14:00,
2013-03-09 23:19:00,30.9,25.5,30.30,NE,38,0.0,2.0,80,0.00,,---,0.00,VWS V14.01,2013-03-10 04:19:00,
2013-03-09 23:24:00,30.9,25.5,30.30,NE,37,0.0,2.0,80,0.00,,---,0.00,VWS V14.01,2013-03-10 04:24:00,
2013-03-09 23:29:00,30.9,25.5,30.30,NNE,27,3.0,3.0,80,0.00,,---,0.00,VWS V14.01,2013-03-10 04:29:00,
2013-03-09 23:34:00,30.9,25.5,30.30,NE,56,0.0,3.0,80,0.00,,---,0.00,VWS V14.01,2013-03-10 04:34:00,
2013-03-09 23:39:00,30.9,25.5,30.30,NE,56,0.0,3.0,80,0.00,,---,0.00,VWS V14.01,2013-03-10 04:39:00,
2013-03-09 23:44:00,30.9,25.5,30.30,NE,56,0.0,3.0,80,0.00,,---,0.00,VWS V14.01,2013-03-10 04:44:00,
2013-03-09 23:50:00,30.7,25.3,30.30,NNW,335,2.0,3.0,80,0.00,,---,0.00,VWS V14.01,2013-03-10 04:50:00,
2013-03-09 23:55:00,30.7,25.3,30.30,ENE,62,3.0,3.0,80,0.00,,---,0.00,VWS V14.01,2013-03-10 04:55:00,